TimeEDT,TemperatureF,Dew PointF,Humidity,Sea Level PressureIn,VisibilityMPH,Wind Direction,Wind SpeedMPH,Gust SpeedMPH,PrecipitationIn,Events,Conditions,WindDirDegrees,DateUTC
12:54 AM,37.9,30.0,73,29.87,-9999.0,NNW,11.5,21.9,N/A,,Unknown,330,2013-03-28 04:54:00
1:54 AM,37.0,30.9,79,29.87,-9999.0,NNW,12.7,23.0,N/A,,Unknown,340,2013-03-28 05:54:00
2:54 AM,36.0,32.0,86,29.87,-9999.0,NNW,9.2,18.4,N/A,,Unknown,330,2013-03-28 06:54:00
3:54 AM,35.1,33.1,92,29.88,-9999.0,NNW,9.2,-,0.01,,Unknown,330,2013-03-28 07:54:00
4:54 AM,35.1,33.1,92,29.88,-9999.0,NNW,9.2,-,N/A,,Unknown,330,2013-03-28 08:54:00
5:54 AM,35.1,33.1,92,29.90,-9999.0,NNW,11.5,17.3,N/A,,Unknown,330,2013-03-28 09:54:00
6:54 AM,35.1,32.0,89,29.91,-9999.0,NNW,12.7,17.3,N/A,,Unknown,330,2013-03-28 10:54:00
7:54 AM,36.0,32.0,86,29.93,-9999.0,North,9.2,16.1,N/A,,Unknown,350,2013-03-28 11:54:00
8:54 AM,37.9,30.9,76,29.94,-9999.0,North,8.1,-,N/A,,Unknown,10,2013-03-28 12:54:00
9:54 AM,42.1,30.0,62,29.94,-9999.0,NNE,6.9,-,N/A,,Unknown,20,2013-03-28 13:54:00
10:54 AM,45.0,28.9,53,29.96,-9999.0,Variable,6.9,-,N/A,,Unknown,0,2013-03-28 14:54:00
11:54 AM,44.1,26.1,49,29.96,-9999.0,NE,10.4,16.1,N/A,,Unknown,40,2013-03-28 15:54:00
12:54 PM,44.1,27.0,51,29.96,-9999.0,NNE,8.1,-,N/A,,Unknown,30,2013-03-28 16:54:00
1:54 PM,43.0,26.1,51,29.96,-9999.0,ENE,5.8,-,N/A,,Unknown,60,2013-03-28 17:54:00
2:54 PM,43.0,28.0,56,29.96,-9999.0,East,3.5,-,N/A,,Unknown,100,2013-03-28 18:54:00
3:54 PM,44.1,28.0,53,29.97,-9999.0,Variable,4.6,-,N/A,,Unknown,0,2013-03-28 19:54:00
4:54 PM,43.0,28.9,58,29.98,-9999.0,ENE,4.6,-,N/A,,Unknown,70,2013-03-28 20:54:00
5:54 PM,41.0,30.0,65,29.99,-9999.0,Calm,Calm,-,N/A,,Unknown,0,2013-03-28 21:54:00
6:54 PM,41.0,30.0,65,30.00,-9999.0,West,5.8,-,N/A,,Unknown,280,2013-03-28 22:54:00
7:54 PM,41.0,30.0,65,30.02,-9999.0,West,6.9,-,N/A,,Unknown,280,2013-03-28 23:54:00
8:54 PM,41.0,30.0,65,30.03,-9999.0,WSW,5.8,-,N/A,,Unknown,250,2013-03-29 00:54:00
9:54 PM,41.0,30.0,65,30.04,-9999.0,West,8.1,-,N/A,,Unknown,270,2013-03-29 01:54:00
10:54 PM,39.9,30.0,68,30.03,-9999.0,WNW,8.1,-,N/A,,Unknown,300,2013-03-29 02:54:00
11:54 PM,39.9,30.0,68,30.03,-9999.0,WNW,8.1,-,N/A,,Unknown,300,2013-03-29 03:54:00